createdAt,value
2023-04-11T00:01:11.442Z,11.70
2023-04-11T00:03:39.900Z,11.70
2023-04-11T00:06:07.225Z,11.60
2023-04-11T00:08:49.403Z,11.60
2023-04-11T00:11:23.055Z,11.60
2023-04-11T00:13:50.061Z,11.60
2023-04-11T00:16:19.618Z,11.60
2023-04-11T00:18:47.222Z,11.60
2023-04-11T00:21:14.224Z,11.60
2023-04-11T00:24:06.765Z,11.50
2023-04-11T00:26:33.787Z,11.60
2023-04-11T00:29:00.635Z,11.50
2023-04-11T00:31:27.691Z,11.50
2023-04-11T00:33:54.784Z,11.50
2023-04-11T00:36:21.958Z,11.50
2023-04-11T00:38:48.999Z,11.50
2023-04-11T00:41:19.153Z,11.50
2023-04-11T00:43:47.326Z,11.50
2023-04-11T00:46:15.116Z,11.40
2023-04-11T00:48:43.485Z,11.40
2023-04-11T00:51:11.029Z,11.40
2023-04-11T00:53:38.585Z,11.40
2023-04-11T00:56:06.944Z,11.40
2023-04-11T00:58:34.732Z,11.40
2023-04-11T01:01:02.372Z,11.40
2023-04-11T01:03:30.329Z,11.30
2023-04-11T01:05:59.434Z,11.30
2023-04-11T01:08:35.081Z,11.20
2023-04-11T01:11:06.503Z,11.20
2023-04-11T01:13:34.420Z,11.20
2023-04-11T01:16:04.968Z,11.20
2023-04-11T01:18:32.381Z,11.20
2023-04-11T01:21:00.647Z,11.20
2023-04-11T01:23:27.921Z,11.20
2023-04-11T01:25:55.011Z,11.20
2023-04-11T01:28:22.272Z,11.20
2023-04-11T01:30:49.162Z,11.10
2023-04-11T01:33:16.675Z,11.10
2023-04-11T01:35:43.987Z,11.10
2023-04-11T01:38:11.169Z,11.10
2023-04-11T01:40:38.136Z,11.10
2023-04-11T01:43:07.220Z,11.10
2023-04-11T01:45:34.259Z,11.10
2023-04-11T01:48:12.034Z,11.00
2023-04-11T01:50:41.520Z,11.10
2023-04-11T01:53:08.954Z,11.00
2023-04-11T01:55:36.009Z,11.00
2023-04-11T01:58:03.128Z,11.00
2023-04-11T02:00:29.976Z,10.90
2023-04-11T02:02:57.002Z,10.90
2023-04-11T02:05:34.926Z,10.90
2023-04-11T02:08:01.832Z,10.80
2023-04-11T02:10:28.739Z,10.70
2023-04-11T02:12:55.623Z,10.80
2023-04-11T02:15:22.503Z,10.80
2023-04-11T02:17:56.110Z,10.80
2023-04-11T02:20:27.035Z,10.80
2023-04-11T02:22:54.294Z,10.80
2023-04-11T02:25:21.602Z,10.80
2023-04-11T02:27:48.790Z,10.80
2023-04-11T02:30:15.991Z,10.80
2023-04-11T02:32:44.243Z,10.70
2023-04-11T02:35:11.285Z,10.70
2023-04-11T02:37:45.074Z,10.70
2023-04-11T02:40:12.073Z,10.70
2023-04-11T02:42:43.147Z,10.70
2023-04-11T02:45:11.789Z,10.70
2023-04-11T02:47:39.445Z,10.70
2023-04-11T02:50:08.021Z,10.70
2023-04-11T02:52:42.293Z,10.70
2023-04-11T02:55:10.928Z,10.60
2023-04-11T02:58:03.986Z,10.40
2023-04-11T03:00:38.231Z,10.30
2023-04-11T03:03:08.422Z,10.20
2023-04-11T03:05:40.631Z,10.20
2023-04-11T03:08:09.142Z,10.20
2023-04-11T03:10:38.525Z,10.20
2023-04-11T03:13:06.457Z,10.20
2023-04-11T03:15:33.329Z,10.20
2023-04-11T03:18:04.825Z,10.20
2023-04-11T03:20:32.532Z,10.20
2023-04-11T03:22:59.425Z,10.20
2023-04-11T03:25:28.182Z,10.10
2023-04-11T03:27:55.290Z,10.10
2023-04-11T03:30:23.065Z,10.00
2023-04-11T03:32:50.205Z,10.00
2023-04-11T03:35:18.777Z,10.00
2023-04-11T03:37:47.801Z,9.90
2023-04-11T03:40:15.921Z,9.90
2023-04-11T03:42:48.074Z,9.90
2023-04-11T03:45:20.066Z,9.80
2023-04-11T03:47:48.570Z,9.80
2023-04-11T03:50:18.877Z,9.80
2023-04-11T03:52:49.209Z,9.70
2023-04-11T03:55:16.630Z,9.70
2023-04-11T03:57:44.145Z,9.70
2023-04-11T04:00:11.614Z,9.60
2023-04-11T04:02:44.418Z,9.60
2023-04-11T04:05:14.412Z,9.60
2023-04-11T04:07:42.715Z,9.50
2023-04-11T04:10:21.059Z,9.50
2023-04-11T04:12:51.683Z,9.50
2023-04-11T04:15:23.013Z,9.50
2023-04-11T04:17:51.280Z,9.40
2023-04-11T04:20:25.688Z,9.50
2023-04-11T04:22:56.238Z,9.40
2023-04-11T04:25:38.369Z,9.40
2023-04-11T04:28:06.984Z,9.40
2023-04-11T04:30:38.540Z,9.40
2023-04-11T04:33:12.363Z,9.40
2023-04-11T04:35:43.577Z,9.30
2023-04-11T04:38:17.936Z,9.30
2023-04-11T04:40:55.650Z,9.30
2023-04-11T04:43:24.468Z,9.30
2023-04-11T04:45:56.924Z,9.30
2023-04-11T04:48:29.332Z,9.20
2023-04-11T04:50:56.259Z,9.20
2023-04-11T04:53:23.263Z,9.10
2023-04-11T04:55:55.331Z,9.10
2023-04-11T04:58:23.664Z,9.10
2023-04-11T05:00:56.085Z,9.10
2023-04-11T05:03:28.786Z,9.10
2023-04-11T05:06:06.656Z,9.10
2023-04-11T05:08:34.308Z,9.10
2023-04-11T05:11:03.075Z,9.00
2023-04-11T05:13:33.399Z,9.00
2023-04-11T05:16:00.964Z,9.00
2023-04-11T05:18:29.535Z,9.00
2023-04-11T05:20:57.208Z,9.10
2023-04-11T05:23:29.168Z,9.00
2023-04-11T05:25:59.586Z,9.00
2023-04-11T05:28:26.451Z,9.00
2023-04-11T05:30:53.525Z,9.00
2023-04-11T05:33:22.783Z,8.90
2023-04-11T05:36:45.630Z,8.90
2023-04-11T05:39:18.304Z,9.00
2023-04-11T05:41:45.705Z,8.90
2023-04-11T05:44:12.638Z,8.90
2023-04-11T05:46:39.738Z,8.90
2023-04-11T05:49:06.542Z,8.90
2023-04-11T05:51:35.833Z,8.90
2023-04-11T05:54:02.635Z,8.90
2023-04-11T05:56:30.606Z,8.90
2023-04-11T05:58:57.702Z,8.90
2023-04-11T06:04:16.239Z,8.90
2023-04-11T06:06:44.250Z,8.90
2023-04-11T06:09:11.366Z,9.00
2023-04-11T06:11:38.265Z,8.90
2023-04-11T06:14:06.302Z,9.00
2023-04-11T06:16:33.565Z,9.00
2023-04-11T06:19:00.368Z,9.00
2023-04-11T06:21:27.847Z,8.90
2023-04-11T06:23:55.959Z,8.90
2023-04-11T06:26:23.198Z,8.90
2023-04-11T06:28:51.251Z,8.90
2023-04-11T06:31:18.142Z,8.90
2023-04-11T06:33:45.356Z,8.90
2023-04-11T06:36:12.150Z,8.90
2023-04-11T06:38:40.540Z,8.90
2023-04-11T06:41:07.361Z,9.00
2023-04-11T06:43:34.128Z,9.00
2023-04-11T06:46:00.885Z,9.00
2023-04-11T06:48:27.647Z,9.10
2023-04-11T06:50:54.407Z,9.10
2023-04-11T06:53:21.543Z,9.10
2023-04-11T06:55:48.789Z,9.10
2023-04-11T06:58:16.111Z,9.00
2023-04-11T07:00:43.011Z,9.00
2023-04-11T07:03:09.966Z,8.90
2023-04-11T07:05:39.053Z,8.90
2023-04-11T07:08:06.420Z,9.00
2023-04-11T07:10:33.224Z,8.90
2023-04-11T07:13:00.002Z,8.90
2023-04-11T07:15:27.810Z,8.90
2023-04-11T07:17:54.711Z,8.80
2023-04-11T07:20:21.633Z,8.80
2023-04-11T07:22:48.586Z,8.80
2023-04-11T07:25:22.473Z,8.80
2023-04-11T07:27:53.133Z,8.80
2023-04-11T07:30:30.456Z,8.80
2023-04-11T07:32:57.314Z,8.70
2023-04-11T07:35:25.385Z,8.70
2023-04-11T07:38:01.168Z,8.80
2023-04-11T07:40:39.942Z,8.70
2023-04-11T07:43:06.746Z,8.70
2023-04-11T07:45:34.266Z,8.70
2023-04-11T07:48:40.525Z,8.70
2023-04-11T07:51:07.681Z,8.70
2023-04-11T07:53:43.393Z,8.60
2023-04-11T07:56:10.916Z,8.60
2023-04-11T07:58:37.747Z,8.60
2023-04-11T08:01:05.547Z,8.60
2023-04-11T08:03:32.736Z,8.50
2023-04-11T08:05:59.662Z,8.60
2023-04-11T08:08:26.579Z,8.60
2023-04-11T08:10:53.390Z,8.60
2023-04-11T08:13:20.264Z,8.60
2023-04-11T08:15:47.085Z,8.60
2023-04-11T08:18:13.978Z,8.60
2023-04-11T08:20:40.995Z,8.70
2023-04-11T08:23:08.701Z,8.70
2023-04-11T08:25:36.630Z,8.70
2023-04-11T08:28:05.064Z,8.70
2023-04-11T08:30:32.317Z,8.70
2023-04-11T08:32:59.229Z,8.80
2023-04-11T08:35:26.319Z,8.80
2023-04-11T08:37:53.224Z,8.80
2023-04-11T08:40:20.120Z,8.80
2023-04-11T08:42:47.022Z,8.80
2023-04-11T08:45:13.774Z,8.80
2023-04-11T08:47:41.966Z,8.80
2023-04-11T08:50:10.990Z,8.90
2023-04-11T08:52:39.577Z,8.90
2023-04-11T08:55:06.523Z,9.00
2023-04-11T08:57:33.410Z,9.00
2023-04-11T09:00:08.324Z,9.10
2023-04-11T09:02:35.275Z,9.10
2023-04-11T09:05:02.264Z,9.10
2023-04-11T09:07:29.123Z,9.20
2023-04-11T09:09:55.922Z,9.20
2023-04-11T09:12:29.606Z,9.30
2023-04-11T09:14:56.697Z,9.30
2023-04-11T09:17:23.631Z,9.30
2023-04-11T09:19:50.528Z,9.30
2023-04-11T09:22:17.335Z,9.30
2023-04-11T09:24:44.245Z,9.30
2023-04-11T09:27:12.718Z,9.30
2023-04-11T09:29:39.690Z,9.30
2023-04-11T09:32:06.760Z,9.30
2023-04-11T09:34:39.538Z,9.30
2023-04-11T09:37:08.210Z,9.40
2023-04-11T09:39:35.195Z,9.30
2023-04-11T09:42:03.301Z,9.30
2023-04-11T09:44:37.550Z,9.40
2023-04-11T09:47:04.602Z,9.40
2023-04-11T09:49:32.958Z,9.40
2023-04-11T09:52:00.721Z,9.40
2023-04-11T09:54:28.459Z,9.40
2023-04-11T09:57:05.351Z,9.40
2023-04-11T09:59:32.726Z,9.40
2023-04-11T10:01:59.818Z,9.40
2023-04-11T10:04:27.958Z,9.40
2023-04-11T10:07:04.373Z,9.40
2023-04-11T10:09:37.956Z,9.30
2023-04-11T10:12:04.928Z,9.20
2023-04-11T10:14:37.951Z,9.10
2023-04-11T10:17:19.703Z,9.00
2023-04-11T10:19:48.824Z,9.00
2023-04-11T10:22:36.094Z,8.90
2023-04-11T10:25:15.102Z,9.00
2023-04-11T10:27:57.172Z,9.10
2023-04-11T10:30:39.203Z,9.10
2023-04-11T10:33:10.172Z,9.10
2023-04-11T10:35:56.026Z,9.20
2023-04-11T10:38:41.448Z,9.10
2023-04-11T10:41:16.507Z,9.10
2023-04-11T10:43:43.568Z,9.10
2023-04-11T10:46:20.536Z,9.10
2023-04-11T10:48:57.859Z,9.10
2023-04-11T10:51:26.861Z,9.10
2023-04-11T10:53:54.223Z,9.00
2023-04-11T10:56:40.043Z,9.00
2023-04-11T10:59:07.128Z,8.90
2023-04-11T11:04:04.638Z,8.90
2023-04-11T11:06:36.175Z,8.90
2023-04-11T11:09:21.037Z,8.90
2023-04-11T11:12:04.753Z,9.00
2023-04-11T11:14:31.697Z,9.00
2023-04-11T11:16:58.725Z,9.00
2023-04-11T11:19:25.811Z,9.00
2023-04-11T11:21:53.158Z,9.10
2023-04-11T11:24:26.587Z,9.10
2023-04-11T11:27:01.840Z,9.20
2023-04-11T11:29:34.893Z,9.20
2023-04-11T11:32:05.236Z,9.20
2023-04-11T11:34:33.745Z,9.20
2023-04-11T11:37:01.869Z,9.20
2023-04-11T11:39:30.445Z,9.20
2023-04-11T11:41:57.796Z,9.20
2023-04-11T11:44:25.901Z,9.20
2023-04-11T11:47:05.386Z,9.20
2023-04-11T11:49:46.017Z,9.20
2023-04-11T11:52:13.684Z,9.20
2023-04-11T11:54:44.508Z,9.20
2023-04-11T11:57:11.393Z,9.30
2023-04-11T11:59:38.299Z,9.30
2023-04-11T12:02:05.912Z,9.30
2023-04-11T12:04:33.514Z,9.50
2023-04-11T12:07:07.878Z,9.50
2023-04-11T12:09:34.926Z,9.60
2023-04-11T12:12:02.079Z,9.50
2023-04-11T12:14:31.024Z,9.50
2023-04-11T12:16:57.951Z,9.50
2023-04-11T12:19:24.853Z,9.50
2023-04-11T12:21:53.295Z,9.50
2023-04-11T12:24:20.326Z,9.60
2023-04-11T12:27:05.569Z,9.60
2023-04-11T12:29:32.976Z,9.70
2023-04-11T12:31:59.815Z,9.70
2023-04-11T12:34:26.629Z,9.70
2023-04-11T12:36:53.690Z,9.60
2023-04-11T12:39:20.700Z,9.60
2023-04-11T12:41:48.000Z,9.70
2023-04-11T12:44:15.735Z,9.70
2023-04-11T12:46:44.249Z,9.80
2023-04-11T12:49:11.195Z,9.80
2023-04-11T12:51:38.099Z,9.80
2023-04-11T12:54:04.873Z,9.80
2023-04-11T12:56:32.676Z,9.80
2023-04-11T12:58:59.556Z,9.80
2023-04-11T13:01:26.464Z,9.80
2023-04-11T13:03:53.446Z,9.80
2023-04-11T13:06:20.450Z,9.90
2023-04-11T13:08:47.804Z,9.90
2023-04-11T13:11:14.646Z,10.00
2023-04-11T13:13:52.048Z,9.90
2023-04-11T13:16:24.154Z,10.00
2023-04-11T13:18:51.342Z,9.90
2023-04-11T13:21:29.188Z,9.70
2023-04-11T13:23:56.364Z,9.70
2023-04-11T13:26:23.226Z,9.70
2023-04-11T13:28:50.064Z,9.70
2023-04-11T13:31:19.455Z,9.70
2023-04-11T13:33:48.022Z,9.80
2023-04-11T13:36:15.077Z,9.80
2023-04-11T13:38:42.169Z,9.80
2023-04-11T13:41:11.841Z,9.80
2023-04-11T13:43:43.912Z,9.50
2023-04-11T13:46:12.234Z,9.20
2023-04-11T13:48:43.310Z,9.00
2023-04-11T13:51:10.486Z,8.90
2023-04-11T13:53:39.742Z,8.90
2023-04-11T13:56:07.792Z,8.90
2023-04-11T13:58:35.515Z,8.90
2023-04-11T14:01:02.460Z,8.90
2023-04-11T14:03:33.841Z,8.90
2023-04-11T14:06:01.305Z,8.90
2023-04-11T14:08:28.994Z,8.90
2023-04-11T14:10:56.209Z,8.90
2023-04-11T14:13:23.052Z,8.80
2023-04-11T14:16:01.329Z,8.90
2023-04-11T14:18:35.619Z,9.00
2023-04-11T14:21:03.548Z,9.10
2023-04-11T14:23:32.684Z,9.10
2023-04-11T14:25:59.589Z,9.20
2023-04-11T14:28:26.942Z,9.20
2023-04-11T14:30:54.292Z,9.30
2023-04-11T14:33:21.303Z,9.30
2023-04-11T14:35:48.272Z,9.30
2023-04-11T14:38:15.919Z,9.40
2023-04-11T14:40:43.108Z,9.40
2023-04-11T14:43:10.176Z,9.40
2023-04-11T14:45:37.451Z,9.40
2023-04-11T14:48:04.509Z,9.40
2023-04-11T14:50:31.587Z,9.30
2023-04-11T14:52:58.525Z,9.20
2023-04-11T14:55:25.415Z,9.10
2023-04-11T14:57:53.686Z,9.00
2023-04-11T15:00:23.025Z,8.90
2023-04-11T15:02:54.099Z,8.90
2023-04-11T15:05:24.799Z,8.80
2023-04-11T15:07:52.327Z,8.80
2023-04-11T15:10:20.098Z,8.90
2023-04-11T15:12:47.195Z,9.00
2023-04-11T15:15:14.526Z,9.10
2023-04-11T15:17:42.308Z,9.10
2023-04-11T15:20:10.185Z,9.10
2023-04-11T15:22:41.667Z,9.20
2023-04-11T15:25:18.669Z,9.30
2023-04-11T15:27:45.833Z,9.30
2023-04-11T15:30:16.256Z,9.20
2023-04-11T15:32:45.081Z,9.20
2023-04-11T15:35:12.445Z,9.20
2023-04-11T15:38:08.832Z,9.20
2023-04-11T15:40:46.787Z,9.30
2023-04-11T15:43:13.664Z,9.20
2023-04-11T15:46:15.258Z,9.20
2023-04-11T15:48:42.068Z,9.20
2023-04-11T15:51:14.070Z,9.00
2023-04-11T15:53:44.176Z,8.90
2023-04-11T15:56:11.260Z,8.90
2023-04-11T15:58:38.297Z,8.80
2023-04-11T16:01:05.326Z,8.70
2023-04-11T16:03:32.799Z,8.60
2023-04-11T16:05:59.953Z,8.60
2023-04-11T16:08:29.782Z,8.70
2023-04-11T16:10:56.680Z,8.80
2023-04-11T16:13:23.664Z,8.90
2023-04-11T16:15:50.564Z,8.80
2023-04-11T16:18:17.344Z,8.90
2023-04-11T16:20:44.131Z,8.90
2023-04-11T16:23:12.397Z,8.90
2023-04-11T16:25:39.318Z,9.00
2023-04-11T16:28:06.606Z,9.00
2023-04-11T16:30:33.474Z,9.00
2023-04-11T16:33:00.399Z,9.00
2023-04-11T16:35:27.222Z,9.00
2023-04-11T16:37:54.080Z,9.00
2023-04-11T16:40:21.081Z,9.10
2023-04-11T16:42:48.003Z,9.10
2023-04-11T16:45:14.832Z,9.10
2023-04-11T16:47:41.807Z,9.10
2023-04-11T16:50:08.774Z,9.10
2023-04-11T16:52:35.533Z,9.10
2023-04-11T16:55:18.048Z,9.10
2023-04-11T16:57:44.821Z,9.10
2023-04-11T17:00:15.755Z,9.10
2023-04-11T17:02:42.641Z,9.00
2023-04-11T17:05:09.804Z,9.00
2023-04-11T17:07:36.572Z,9.00
2023-04-11T17:10:05.248Z,9.10
2023-04-11T17:12:32.304Z,9.10
2023-04-11T17:15:02.359Z,9.00
2023-04-11T17:17:29.334Z,9.00
2023-04-11T17:19:56.623Z,8.90
2023-04-11T17:22:23.461Z,8.90
2023-04-11T17:24:50.421Z,8.90
2023-04-11T17:27:17.319Z,8.90
2023-04-11T17:29:47.265Z,8.90
2023-04-11T17:32:16.771Z,8.90
2023-04-11T17:34:43.582Z,8.90
2023-04-11T17:37:10.410Z,8.90
2023-04-11T17:39:37.708Z,8.90
2023-04-11T17:42:04.868Z,8.80
2023-04-11T17:44:31.713Z,8.90
2023-04-11T17:46:58.612Z,8.80
2023-04-11T17:49:27.236Z,8.80
2023-04-11T17:51:59.064Z,8.80
2023-04-11T17:54:26.665Z,8.80
2023-04-11T17:56:55.147Z,8.70
2023-04-11T17:59:24.049Z,8.70
2023-04-11T18:01:53.358Z,8.70
2023-04-11T18:04:21.519Z,8.70
2023-04-11T18:06:48.466Z,8.60
2023-04-11T18:09:21.927Z,8.60
2023-04-11T18:11:49.221Z,8.50
2023-04-11T18:14:16.176Z,8.50
2023-04-11T18:16:45.848Z,8.40
2023-04-11T18:19:13.530Z,8.40
2023-04-11T18:21:41.017Z,8.40
2023-04-11T18:24:10.320Z,8.40
2023-04-11T18:26:37.216Z,8.40
2023-04-11T18:29:13.302Z,8.30
2023-04-11T18:31:55.257Z,8.30
2023-04-11T18:34:26.822Z,8.20
2023-04-11T18:37:27.144Z,8.30
2023-04-11T18:41:20.250Z,8.20
2023-04-11T18:44:33.655Z,8.20
2023-04-11T18:51:07.630Z,8.20
2023-04-11T19:03:56.861Z,7.90
2023-04-11T19:06:26.938Z,7.80
2023-04-11T19:08:53.941Z,7.70
2023-04-11T19:11:25.833Z,7.60
2023-04-11T19:14:14.301Z,7.60
2023-04-11T19:16:44.197Z,7.50
2023-04-11T19:19:11.425Z,7.50
2023-04-11T19:21:38.437Z,7.50
2023-04-11T19:28:03.261Z,7.40
2023-04-11T19:30:30.255Z,7.40
2023-04-11T19:33:00.682Z,7.40
2023-04-11T19:35:27.798Z,7.30
2023-04-11T19:37:56.076Z,7.30
2023-04-11T19:40:28.059Z,7.30
2023-04-11T19:43:02.343Z,7.30
2023-04-11T19:45:32.363Z,7.30
2023-04-11T19:48:05.520Z,7.20
2023-04-11T19:50:37.098Z,7.20
2023-04-11T19:53:06.328Z,7.20
2023-04-11T19:55:33.331Z,7.00
2023-04-11T19:58:13.779Z,7.10
2023-04-11T20:00:40.937Z,7.00
2023-04-11T20:06:05.646Z,6.90
2023-04-11T20:08:34.060Z,6.90
2023-04-11T20:11:02.147Z,6.90
2023-04-11T20:13:29.209Z,6.90
2023-04-11T20:15:56.001Z,6.90
2023-04-11T20:18:23.189Z,6.80
2023-04-11T20:20:52.739Z,6.80
2023-04-11T20:23:21.510Z,6.80
2023-04-11T20:25:48.349Z,6.80
2023-04-11T20:28:17.349Z,6.70
2023-04-11T20:30:44.395Z,6.70
2023-04-11T20:33:11.736Z,6.60
2023-04-11T20:39:09.237Z,6.60
2023-04-11T20:46:05.316Z,6.50
2023-04-11T20:48:36.013Z,6.40
2023-04-11T20:51:32.618Z,6.40
2023-04-11T20:54:00.545Z,6.40
2023-04-11T20:56:27.417Z,6.40
2023-04-11T20:58:56.274Z,6.40
2023-04-11T21:01:34.203Z,6.30
2023-04-11T21:04:02.758Z,6.30
2023-04-11T21:06:31.817Z,6.20
2023-04-11T21:09:16.028Z,6.20
2023-04-11T21:11:43.082Z,6.20
2023-04-11T21:14:48.277Z,6.20
2023-04-11T21:17:15.331Z,6.20
2023-04-11T21:23:13.216Z,6.10
2023-04-11T21:26:46.246Z,6.00
2023-04-11T21:30:09.756Z,6.00
2023-04-11T21:36:21.553Z,5.90
2023-04-11T21:41:49.605Z,5.90
2023-04-11T21:44:16.594Z,5.80
2023-04-11T21:47:12.172Z,5.80
2023-04-11T21:49:48.309Z,5.80
2023-04-11T21:52:50.448Z,5.80
2023-04-11T21:55:42.645Z,5.70
2023-04-11T21:58:37.909Z,5.60
2023-04-11T22:01:53.039Z,5.60
2023-04-11T22:04:20.477Z,5.60
2023-04-11T22:06:47.498Z,5.50
2023-04-11T22:09:15.119Z,5.50
2023-04-11T22:11:42.233Z,5.50
2023-04-11T22:14:09.253Z,5.40
2023-04-11T22:16:36.087Z,5.50
2023-04-11T22:19:05.332Z,5.50
2023-04-11T22:21:50.536Z,5.40
2023-04-11T22:24:18.136Z,5.40
2023-04-11T22:26:58.187Z,5.40
2023-04-11T22:29:30.335Z,5.40
2023-04-11T22:31:58.321Z,5.40
2023-04-11T22:34:25.983Z,5.40
2023-04-11T22:36:55.592Z,5.40
2023-04-11T22:39:24.754Z,5.30
2023-04-11T22:41:52.230Z,5.30
2023-04-11T22:45:04.369Z,5.30
2023-04-11T22:47:45.706Z,5.30
2023-04-11T22:50:18.372Z,5.30
2023-04-11T22:52:46.202Z,5.30
2023-04-11T22:55:29.293Z,5.20
2023-04-11T22:58:02.286Z,5.20
2023-04-11T23:00:31.386Z,5.20
2023-04-11T23:03:02.751Z,5.20
2023-04-11T23:05:30.377Z,5.10
2023-04-11T23:07:59.516Z,5.20
2023-04-11T23:10:26.570Z,5.10
2023-04-11T23:12:53.824Z,5.10
2023-04-11T23:15:21.938Z,5.10
2023-04-11T23:17:49.234Z,5.10
2023-04-11T23:20:17.554Z,5.10
2023-04-11T23:22:44.760Z,5.10
2023-04-11T23:25:11.999Z,5.10
2023-04-11T23:27:39.122Z,5.10
2023-04-11T23:30:06.317Z,5.00
2023-04-11T23:32:33.573Z,5.00
2023-04-11T23:35:00.397Z,5.00
2023-04-11T23:37:28.403Z,4.90
2023-04-11T23:39:55.259Z,4.90
2023-04-11T23:42:22.651Z,4.90
2023-04-11T23:44:49.509Z,4.90
2023-04-11T23:47:16.357Z,4.90
2023-04-11T23:49:44.345Z,4.90
2023-04-11T23:52:12.333Z,4.90
2023-04-11T23:54:39.293Z,4.90
2023-04-11T23:57:06.281Z,4.80
2023-04-11T23:59:33.153Z,4.80
